createdAt,value
2023-10-29T00:02:22.166Z,8.70
2023-10-29T00:04:49.371Z,8.70
2023-10-29T00:07:16.462Z,8.70
2023-10-29T00:09:43.413Z,8.70
2023-10-29T00:12:12.542Z,8.80
2023-10-29T00:14:44.494Z,8.80
2023-10-29T00:17:13.668Z,8.80
2023-10-29T00:19:40.751Z,8.80
2023-10-29T00:22:09.788Z,8.80
2023-10-29T00:24:39.088Z,8.80
2023-10-29T00:27:08.256Z,8.80
2023-10-29T00:29:35.240Z,8.80
2023-10-29T00:32:04.884Z,8.80
2023-10-29T00:34:31.858Z,8.70
2023-10-29T00:37:01.166Z,8.60
2023-10-29T00:39:28.151Z,8.60
2023-10-29T00:41:57.460Z,8.60
2023-10-29T00:44:26.994Z,8.60
2023-10-29T00:46:54.446Z,8.50
2023-10-29T00:49:21.742Z,8.50
2023-10-29T00:51:49.711Z,8.50
2023-10-29T00:54:16.663Z,8.50
2023-10-29T00:56:46.894Z,8.40
2023-10-29T00:59:16.696Z,8.40
2023-10-29T01:01:43.604Z,8.40
2023-10-29T01:04:10.660Z,8.50
2023-10-29T01:06:42.335Z,8.50
2023-10-29T01:09:12.957Z,8.50
2023-10-29T01:11:40.061Z,8.50
2023-10-29T01:14:11.855Z,8.60
2023-10-29T01:16:40.040Z,8.60
2023-10-29T01:19:07.151Z,8.60
2023-10-29T01:21:34.235Z,8.60
2023-10-29T01:24:03.379Z,8.60
2023-10-29T01:26:30.345Z,8.60
2023-10-29T01:28:57.226Z,8.60
2023-10-29T01:31:24.422Z,8.60
2023-10-29T01:33:53.001Z,8.50
2023-10-29T01:36:20.315Z,8.40
2023-10-29T01:38:47.296Z,8.30
2023-10-29T01:41:15.073Z,8.30
2023-10-29T01:43:42.171Z,8.30
2023-10-29T01:46:11.272Z,8.20
2023-10-29T01:48:38.254Z,8.20
2023-10-29T01:51:09.487Z,8.10
2023-10-29T01:53:39.394Z,8.10
2023-10-29T01:56:10.234Z,8.00
2023-10-29T01:58:39.639Z,8.00
2023-10-29T02:01:12.944Z,8.00
2023-10-29T02:03:42.225Z,7.90
2023-10-29T02:06:18.060Z,7.80
2023-10-29T02:08:45.156Z,7.80
2023-10-29T02:11:12.091Z,7.70
2023-10-29T02:13:39.059Z,7.70
2023-10-29T02:16:10.240Z,7.70
2023-10-29T02:18:37.455Z,7.70
2023-10-29T02:21:04.729Z,7.60
2023-10-29T02:23:31.878Z,7.60
2023-10-29T02:25:58.876Z,7.60
2023-10-29T02:28:28.248Z,7.60
2023-10-29T02:30:55.376Z,7.50
2023-10-29T02:33:22.314Z,7.50
2023-10-29T02:35:52.069Z,7.40
2023-10-29T02:38:19.563Z,7.40
2023-10-29T02:40:46.582Z,7.40
2023-10-29T02:43:14.593Z,7.30
2023-10-29T02:45:44.894Z,7.20
2023-10-29T02:48:12.263Z,7.20
2023-10-29T02:50:39.479Z,7.20
2023-10-29T02:53:08.767Z,7.10
2023-10-29T02:55:38.046Z,7.10
2023-10-29T02:58:04.948Z,7.00
2023-10-29T03:00:31.790Z,7.00
2023-10-29T03:03:01.141Z,6.90
2023-10-29T03:05:28.727Z,6.90
2023-10-29T03:07:55.777Z,6.90
2023-10-29T03:10:23.096Z,6.80
2023-10-29T03:12:55.282Z,6.90
2023-10-29T03:15:22.145Z,6.80
2023-10-29T03:17:49.135Z,6.80
2023-10-29T03:20:18.376Z,6.80
2023-10-29T03:22:45.319Z,6.80
2023-10-29T03:25:12.426Z,6.80
2023-10-29T03:27:41.565Z,6.80
2023-10-29T03:30:09.028Z,6.80
2023-10-29T03:32:36.029Z,6.90
2023-10-29T03:35:03.062Z,6.90
2023-10-29T03:37:29.984Z,6.90
2023-10-29T03:39:59.117Z,6.90
2023-10-29T03:42:26.077Z,6.90
2023-10-29T03:44:55.428Z,7.00
2023-10-29T03:47:24.656Z,7.00
2023-10-29T03:49:53.813Z,7.00
2023-10-29T03:52:20.999Z,7.10
2023-10-29T03:54:48.096Z,7.20
2023-10-29T03:57:17.433Z,7.20
2023-10-29T03:59:44.684Z,7.30
2023-10-29T04:02:13.880Z,7.40
2023-10-29T04:04:43.841Z,7.40
2023-10-29T04:07:13.123Z,7.40
2023-10-29T04:09:41.457Z,7.40
2023-10-29T04:12:08.494Z,7.40
2023-10-29T04:14:36.310Z,7.40
2023-10-29T04:17:05.747Z,7.40
2023-10-29T04:19:32.720Z,7.50
2023-10-29T04:22:00.036Z,7.50
2023-10-29T04:24:26.960Z,7.50
2023-10-29T04:26:53.946Z,7.40
2023-10-29T04:29:22.435Z,7.50
2023-10-29T04:31:49.471Z,7.50
2023-10-29T04:34:16.353Z,7.50
2023-10-29T04:36:43.650Z,7.40
2023-10-29T04:39:12.944Z,7.40
2023-10-29T04:41:42.371Z,7.40
2023-10-29T04:44:09.351Z,7.30
2023-10-29T04:46:36.214Z,7.30
2023-10-29T04:49:03.560Z,7.30
2023-10-29T04:51:35.313Z,7.40
2023-10-29T04:54:02.362Z,7.40
2023-10-29T04:56:36.355Z,7.40
2023-10-29T04:59:03.336Z,7.30
2023-10-29T05:01:30.323Z,7.20
2023-10-29T05:03:57.458Z,7.10
2023-10-29T05:06:27.143Z,7.00
2023-10-29T05:08:54.908Z,7.00
2023-10-29T05:11:26.929Z,7.00
2023-10-29T05:13:53.982Z,7.00
2023-10-29T05:16:23.621Z,7.00
2023-10-29T05:18:50.529Z,7.10
2023-10-29T05:21:17.416Z,7.20
2023-10-29T05:23:46.905Z,7.30
2023-10-29T05:26:13.908Z,7.40
2023-10-29T05:28:40.763Z,7.60
2023-10-29T05:31:10.121Z,7.60
2023-10-29T05:33:39.035Z,7.70
2023-10-29T05:36:10.056Z,7.80
2023-10-29T05:38:37.107Z,7.80
2023-10-29T05:41:06.971Z,7.80
2023-10-29T05:43:35.577Z,7.80
2023-10-29T05:46:02.557Z,7.90
2023-10-29T05:48:29.806Z,7.90
2023-10-29T05:50:57.101Z,7.90
2023-10-29T05:53:24.085Z,8.00
2023-10-29T05:55:57.272Z,8.00
2023-10-29T05:58:27.733Z,8.10
2023-10-29T06:00:56.872Z,8.10
2023-10-29T06:03:23.952Z,8.10
2023-10-29T06:05:52.854Z,8.20
2023-10-29T06:08:19.891Z,8.20
2023-10-29T06:10:48.886Z,8.20
2023-10-29T06:13:18.042Z,8.20
2023-10-29T06:15:45.015Z,8.20
2023-10-29T06:18:12.176Z,8.20
2023-10-29T06:20:42.930Z,8.20
2023-10-29T06:23:10.370Z,8.20
2023-10-29T06:25:37.686Z,8.30
2023-10-29T06:28:08.587Z,8.30
2023-10-29T06:30:37.633Z,8.30
2023-10-29T06:33:04.578Z,8.40
2023-10-29T06:35:34.076Z,8.40
2023-10-29T06:38:03.358Z,8.30
2023-10-29T06:40:30.221Z,8.40
2023-10-29T06:42:57.320Z,8.40
2023-10-29T06:45:24.579Z,8.40
2023-10-29T06:47:53.765Z,8.40
2023-10-29T06:50:23.271Z,8.40
2023-10-29T06:52:50.547Z,8.50
2023-10-29T06:55:17.576Z,8.50
2023-10-29T06:57:44.624Z,8.50
2023-10-29T07:00:12.143Z,8.60
2023-10-29T07:02:39.505Z,8.60
2023-10-29T07:05:09.860Z,8.70
2023-10-29T07:07:36.851Z,8.80
2023-10-29T07:10:07.179Z,8.80
2023-10-29T07:12:34.107Z,8.80
2023-10-29T07:15:01.198Z,8.90
2023-10-29T07:17:30.469Z,9.00
2023-10-29T07:19:57.684Z,9.10
2023-10-29T07:22:24.608Z,9.10
2023-10-29T07:24:51.507Z,9.20
2023-10-29T07:27:20.605Z,9.30
2023-10-29T07:29:47.553Z,9.60
2023-10-29T07:32:15.091Z,9.70
2023-10-29T07:34:44.508Z,9.80
2023-10-29T07:37:13.611Z,9.90
2023-10-29T07:39:40.609Z,10.00
2023-10-29T07:42:08.246Z,10.10
2023-10-29T07:44:35.212Z,10.10
2023-10-29T07:47:09.233Z,10.00
2023-10-29T07:49:38.643Z,10.10
2023-10-29T07:52:08.291Z,10.20
2023-10-29T07:54:35.400Z,10.30
2023-10-29T07:57:02.396Z,10.30
2023-10-29T07:59:29.342Z,10.30
2023-10-29T08:02:00.851Z,10.40
2023-10-29T08:04:31.219Z,10.50
2023-10-29T08:07:01.447Z,10.60
2023-10-29T08:09:30.577Z,10.70
2023-10-29T08:11:57.677Z,10.70
2023-10-29T08:14:24.572Z,10.80
2023-10-29T08:16:51.517Z,10.90
2023-10-29T08:19:18.490Z,11.00
2023-10-29T08:21:47.655Z,11.10
2023-10-29T08:24:16.980Z,11.20
2023-10-29T08:26:46.098Z,11.20
2023-10-29T08:29:13.683Z,11.20
2023-10-29T08:31:42.950Z,11.30
2023-10-29T08:34:12.409Z,11.40
2023-10-29T08:36:43.827Z,11.60
2023-10-29T08:39:10.816Z,11.90
2023-10-29T08:41:37.853Z,12.20
2023-10-29T08:44:07.210Z,12.40
2023-10-29T08:46:34.360Z,12.50
2023-10-29T08:49:01.292Z,12.60
2023-10-29T08:51:28.208Z,12.60
2023-10-29T08:53:55.504Z,12.60
2023-10-29T08:56:22.343Z,12.50
2023-10-29T08:58:49.231Z,12.60
2023-10-29T09:01:18.771Z,12.60
2023-10-29T09:03:46.024Z,12.50
2023-10-29T09:06:14.140Z,12.60
2023-10-29T09:08:41.758Z,12.60
2023-10-29T09:11:16.332Z,12.70
2023-10-29T09:13:43.223Z,12.70
2023-10-29T09:16:10.300Z,12.80
2023-10-29T09:18:37.595Z,12.90
2023-10-29T09:21:06.074Z,13.00
2023-10-29T09:23:33.448Z,13.20
2023-10-29T09:26:02.811Z,13.30
2023-10-29T09:28:31.825Z,13.50
2023-10-29T09:30:58.780Z,13.70
2023-10-29T09:33:25.777Z,13.80
2023-10-29T09:35:52.709Z,13.90
2023-10-29T09:38:21.600Z,14.00
2023-10-29T09:40:55.038Z,14.00
2023-10-29T09:43:27.866Z,14.00
2023-10-29T09:45:56.399Z,13.90
2023-10-29T09:48:24.492Z,13.90
2023-10-29T09:50:52.112Z,13.90
2023-10-29T09:53:19.944Z,13.90
2023-10-29T09:55:49.743Z,14.10
2023-10-29T09:58:16.742Z,14.20
2023-10-29T10:00:47.466Z,14.20
2023-10-29T10:03:14.691Z,14.20
2023-10-29T10:05:42.466Z,14.30
2023-10-29T10:08:10.578Z,14.50
2023-10-29T10:10:44.911Z,14.40
2023-10-29T10:13:13.469Z,14.50
2023-10-29T10:15:40.889Z,14.50
2023-10-29T10:18:10.772Z,14.70
2023-10-29T10:20:38.300Z,14.90
2023-10-29T10:23:10.864Z,15.20
2023-10-29T10:25:39.220Z,15.30
2023-10-29T10:28:06.432Z,15.50
2023-10-29T10:30:40.277Z,15.70
2023-10-29T10:33:16.844Z,16.00
2023-10-29T10:35:43.875Z,16.50
2023-10-29T10:38:15.087Z,16.60
2023-10-29T10:40:42.543Z,16.70
2023-10-29T10:43:11.858Z,16.80
2023-10-29T10:45:38.874Z,16.90
2023-10-29T10:48:09.290Z,17.00
2023-10-29T10:50:36.835Z,17.10
2023-10-29T10:53:04.974Z,17.20
2023-10-29T10:55:50.768Z,17.30
2023-10-29T10:58:22.591Z,17.20
2023-10-29T11:00:51.016Z,17.10
2023-10-29T11:03:31.877Z,17.10
2023-10-29T11:06:00.718Z,17.20
2023-10-29T11:08:27.911Z,17.00
2023-10-29T11:10:58.866Z,16.80
2023-10-29T11:13:28.488Z,16.60
2023-10-29T11:15:58.170Z,16.50
2023-10-29T11:18:35.209Z,16.50
2023-10-29T11:21:05.663Z,16.40
2023-10-29T11:23:36.092Z,16.40
2023-10-29T11:26:24.230Z,16.40
2023-10-29T11:28:53.735Z,16.50
2023-10-29T11:31:48.754Z,16.60
2023-10-29T11:34:24.772Z,16.70
2023-10-29T11:36:58.465Z,17.00
2023-10-29T11:39:34.297Z,17.20
2023-10-29T11:42:21.259Z,17.50
2023-10-29T11:44:48.502Z,17.70
2023-10-29T11:47:15.555Z,17.90
2023-10-29T11:49:47.528Z,17.90
2023-10-29T11:52:16.765Z,18.10
2023-10-29T11:54:46.598Z,18.30
2023-10-29T11:57:16.524Z,18.40
2023-10-29T11:59:56.755Z,18.50
2023-10-29T12:02:32.172Z,18.50
2023-10-29T12:04:59.190Z,18.60
2023-10-29T12:07:33.292Z,18.70
2023-10-29T12:10:07.362Z,18.70
2023-10-29T12:12:36.932Z,18.90
2023-10-29T12:15:05.619Z,19.00
2023-10-29T12:18:01.357Z,19.00
2023-10-29T12:20:30.238Z,19.10
2023-10-29T12:22:59.301Z,19.20
2023-10-29T12:25:27.920Z,19.20
2023-10-29T12:27:58.178Z,19.20
2023-10-29T12:30:39.696Z,19.20
2023-10-29T12:33:24.012Z,19.20
2023-10-29T12:35:52.382Z,19.30
2023-10-29T12:38:20.089Z,19.40
2023-10-29T12:41:20.099Z,19.50
2023-10-29T12:43:49.196Z,19.70
2023-10-29T12:46:23.297Z,19.80
2023-10-29T12:49:00.755Z,19.90
2023-10-29T12:51:47.630Z,20.00
2023-10-29T12:54:20.698Z,20.30
2023-10-29T12:56:55.211Z,20.40
2023-10-29T12:59:28.499Z,20.50
2023-10-29T13:02:08.257Z,20.40
2023-10-29T13:04:38.303Z,20.40
2023-10-29T13:07:12.755Z,20.40
2023-10-29T13:09:41.497Z,20.50
2023-10-29T13:12:12.049Z,20.40
2023-10-29T13:14:40.641Z,20.40
2023-10-29T13:17:08.272Z,20.40
2023-10-29T13:19:36.436Z,20.50
2023-10-29T13:22:06.658Z,20.40
2023-10-29T13:24:34.081Z,20.40
2023-10-29T13:27:03.269Z,20.40
2023-10-29T13:29:30.098Z,20.40
2023-10-29T13:31:57.049Z,20.50
2023-10-29T13:34:24.259Z,20.70
2023-10-29T13:36:55.881Z,20.90
2023-10-29T13:39:22.946Z,20.90
2023-10-29T13:41:50.009Z,20.80
2023-10-29T13:44:19.539Z,20.70
2023-10-29T13:46:48.969Z,20.50
2023-10-29T13:49:16.264Z,20.40
2023-10-29T13:51:47.890Z,20.20
2023-10-29T13:54:14.968Z,20.00
2023-10-29T13:56:42.326Z,20.00
2023-10-29T13:59:09.380Z,20.00
2023-10-29T14:01:36.763Z,19.90
2023-10-29T14:04:04.010Z,19.80
2023-10-29T14:06:31.517Z,19.80
2023-10-29T14:08:58.934Z,19.80
2023-10-29T14:11:26.111Z,19.80
2023-10-29T14:13:54.916Z,19.80
2023-10-29T14:16:36.767Z,19.80
2023-10-29T14:19:06.147Z,19.80
2023-10-29T14:21:33.885Z,19.70
2023-10-29T14:24:03.666Z,19.70
2023-10-29T14:26:31.286Z,19.60
2023-10-29T14:28:58.212Z,19.50
2023-10-29T14:31:25.207Z,19.40
2023-10-29T14:33:54.362Z,19.30
2023-10-29T14:36:24.722Z,19.20
2023-10-29T14:38:52.814Z,19.10
2023-10-29T14:41:22.052Z,19.00
2023-10-29T14:43:51.271Z,18.80
2023-10-29T14:46:18.286Z,18.80
2023-10-29T14:48:49.870Z,18.70
2023-10-29T14:51:17.390Z,18.60
2023-10-29T14:53:44.339Z,18.50
2023-10-29T14:56:11.454Z,18.40
2023-10-29T14:58:38.443Z,18.30
2023-10-29T15:01:08.881Z,18.20
2023-10-29T15:03:38.512Z,18.10
2023-10-29T15:06:12.899Z,18.00
2023-10-29T15:08:42.123Z,17.90
2023-10-29T15:11:09.362Z,17.80
2023-10-29T15:13:46.332Z,17.80
2023-10-29T15:16:15.864Z,17.70
2023-10-29T15:18:43.082Z,17.60
2023-10-29T15:21:16.272Z,17.60
2023-10-29T15:23:46.143Z,17.50
2023-10-29T15:26:19.711Z,17.50
2023-10-29T15:28:48.057Z,17.30
2023-10-29T15:31:15.060Z,17.20
2023-10-29T15:33:42.177Z,17.10
2023-10-29T15:36:11.198Z,17.00
2023-10-29T15:38:42.537Z,16.90
2023-10-29T15:41:10.131Z,16.80
2023-10-29T15:43:37.327Z,16.70
2023-10-29T15:46:05.779Z,16.70
2023-10-29T15:48:33.584Z,16.60
2023-10-29T15:51:01.705Z,16.40
2023-10-29T15:53:28.890Z,16.40
2023-10-29T15:55:55.816Z,16.40
2023-10-29T15:58:23.220Z,16.30
2023-10-29T16:00:50.689Z,16.20
2023-10-29T16:03:20.479Z,16.20
2023-10-29T16:05:47.493Z,16.10
2023-10-29T16:08:14.535Z,16.00
2023-10-29T16:10:44.928Z,15.90
2023-10-29T16:13:13.948Z,15.80
2023-10-29T16:15:40.855Z,15.70
2023-10-29T16:18:08.280Z,15.70
2023-10-29T16:20:35.442Z,15.60
2023-10-29T16:23:04.537Z,15.60
2023-10-29T16:25:33.632Z,15.50
2023-10-29T16:28:00.588Z,15.50
2023-10-29T16:30:28.512Z,15.50
2023-10-29T16:32:56.613Z,15.50
2023-10-29T16:35:23.723Z,15.40
2023-10-29T16:37:55.907Z,15.40
2023-10-29T16:40:26.045Z,15.40
2023-10-29T16:42:53.549Z,15.40
2023-10-29T16:45:22.983Z,15.30
2023-10-29T16:47:52.348Z,15.30
2023-10-29T16:50:22.974Z,15.30
2023-10-29T16:52:55.312Z,15.20
2023-10-29T16:55:22.191Z,15.20
2023-10-29T16:57:51.549Z,15.20
2023-10-29T17:00:18.815Z,15.20
2023-10-29T17:02:48.205Z,15.20
2023-10-29T17:05:17.599Z,15.10
2023-10-29T17:07:44.546Z,15.10
2023-10-29T17:10:16.206Z,15.10
2023-10-29T17:12:43.308Z,15.10
2023-10-29T17:15:12.790Z,15.10
2023-10-29T17:17:42.487Z,15.10
2023-10-29T17:20:11.592Z,15.10
2023-10-29T17:22:38.607Z,15.10
2023-10-29T17:25:05.993Z,15.20
2023-10-29T17:27:35.142Z,15.30
2023-10-29T17:30:04.968Z,15.50
2023-10-29T17:32:31.943Z,15.60
2023-10-29T17:34:59.443Z,15.60
2023-10-29T17:37:26.408Z,15.60
2023-10-29T17:39:55.694Z,15.60
2023-10-29T17:42:24.755Z,15.70
2023-10-29T17:44:51.787Z,16.20
2023-10-29T17:47:18.842Z,16.20
2023-10-29T17:49:45.775Z,16.30
2023-10-29T17:52:14.818Z,16.40
2023-10-29T17:54:44.196Z,16.30
2023-10-29T17:57:11.797Z,16.30
2023-10-29T17:59:41.637Z,16.30
2023-10-29T18:02:08.575Z,16.20
2023-10-29T18:04:40.459Z,16.10
2023-10-29T18:07:09.774Z,16.00
2023-10-29T18:10:04.022Z,15.90
2023-10-29T18:12:31.066Z,15.70
2023-10-29T18:15:00.793Z,15.50
2023-10-29T18:17:53.089Z,15.40
2023-10-29T18:20:23.073Z,15.30
2023-10-29T18:22:53.437Z,15.20
2023-10-29T18:25:25.472Z,15.10
2023-10-29T18:27:52.736Z,15.00
2023-10-29T18:30:22.068Z,15.00
2023-10-29T18:32:49.422Z,14.90
2023-10-29T18:35:16.518Z,14.90
2023-10-29T18:37:50.645Z,14.90
2023-10-29T18:40:18.576Z,14.90
2023-10-29T18:42:45.573Z,14.90
2023-10-29T18:45:12.669Z,14.90
2023-10-29T18:47:42.010Z,14.90
2023-10-29T18:50:11.320Z,14.80
2023-10-29T18:52:39.180Z,14.70
2023-10-29T18:55:09.889Z,14.70
2023-10-29T18:57:36.852Z,14.70
2023-10-29T19:00:05.361Z,14.70
2023-10-29T19:02:34.749Z,14.60
2023-10-29T19:05:01.749Z,14.60
2023-10-29T19:07:31.238Z,14.50
2023-10-29T19:10:00.236Z,14.40
2023-10-29T19:12:27.242Z,14.50
2023-10-29T19:14:56.532Z,14.50
2023-10-29T19:17:23.533Z,14.40
2023-10-29T19:19:50.625Z,14.40
2023-10-29T19:22:20.247Z,14.40
2023-10-29T19:24:47.646Z,14.40
2023-10-29T19:27:14.734Z,14.40
2023-10-29T19:29:41.876Z,14.30
2023-10-29T19:32:09.384Z,14.30
2023-10-29T19:34:38.562Z,14.30
2023-10-29T19:37:09.885Z,14.20
2023-10-29T19:39:37.066Z,14.20
2023-10-29T19:42:04.504Z,14.20
2023-10-29T19:44:31.791Z,14.20
2023-10-29T19:46:58.873Z,14.20
2023-10-29T19:49:25.775Z,14.10
2023-10-29T19:51:52.861Z,14.10
2023-10-29T19:54:19.814Z,14.00
2023-10-29T19:56:46.925Z,14.00
2023-10-29T19:59:18.489Z,13.90
2023-10-29T20:01:47.543Z,13.90
2023-10-29T20:04:16.784Z,13.90
2023-10-29T20:06:43.803Z,13.80
2023-10-29T20:09:11.597Z,13.80
2023-10-29T20:11:38.555Z,13.80
2023-10-29T20:14:05.492Z,13.80
2023-10-29T20:16:32.587Z,13.80
2023-10-29T20:18:59.761Z,13.80
2023-10-29T20:21:32.196Z,13.80
2023-10-29T20:23:59.866Z,13.80
2023-10-29T20:26:27.056Z,13.70
2023-10-29T20:28:56.241Z,13.70
2023-10-29T20:31:23.421Z,13.70
2023-10-29T20:33:52.971Z,13.60
2023-10-29T20:36:20.111Z,13.70
2023-10-29T20:38:47.183Z,13.60
2023-10-29T20:41:14.085Z,13.70
2023-10-29T20:43:44.601Z,13.60
2023-10-29T20:46:11.876Z,13.60
2023-10-29T20:48:45.128Z,13.50
2023-10-29T20:51:14.388Z,13.50
2023-10-29T20:53:41.287Z,13.50
2023-10-29T20:56:12.057Z,13.50
2023-10-29T20:58:39.014Z,13.50
2023-10-29T21:01:08.812Z,13.50
2023-10-29T21:03:35.963Z,13.40
2023-10-29T21:06:03.247Z,13.40
2023-10-29T21:08:32.528Z,13.30
2023-10-29T21:11:14.767Z,13.40
2023-10-29T21:13:47.058Z,13.40
2023-10-29T21:16:16.639Z,13.40
2023-10-29T21:18:43.825Z,13.40
2023-10-29T21:21:13.008Z,13.50
2023-10-29T21:23:45.418Z,13.40
2023-10-29T21:26:12.444Z,13.40
2023-10-29T21:28:39.555Z,13.40
2023-10-29T21:31:08.142Z,13.30
2023-10-29T21:33:37.791Z,13.30
2023-10-29T21:36:10.347Z,13.30
2023-10-29T21:38:37.950Z,13.30
2023-10-29T21:41:15.713Z,13.30
2023-10-29T21:43:43.382Z,13.30
2023-10-29T21:46:10.577Z,13.30
2023-10-29T21:48:37.716Z,13.30
2023-10-29T21:51:06.576Z,13.30
2023-10-29T21:53:36.260Z,13.30
2023-10-29T21:56:06.844Z,13.30
2023-10-29T21:58:34.655Z,13.30
2023-10-29T22:01:04.504Z,13.30
2023-10-29T22:03:33.087Z,13.30
2023-10-29T22:06:11.613Z,13.30
2023-10-29T22:08:43.566Z,13.20
2023-10-29T22:11:13.359Z,13.20
2023-10-29T22:13:43.660Z,13.20
2023-10-29T22:16:12.882Z,13.20
2023-10-29T22:18:40.160Z,13.20
2023-10-29T22:21:07.074Z,13.20
2023-10-29T22:23:37.111Z,13.20
2023-10-29T22:26:05.026Z,13.20
2023-10-29T22:28:32.848Z,13.10
2023-10-29T22:31:01.229Z,13.10
2023-10-29T22:33:32.409Z,13.10
2023-10-29T22:36:05.946Z,13.10
2023-10-29T22:38:33.062Z,13.10
2023-10-29T22:41:18.257Z,13.10
2023-10-29T22:43:45.679Z,13.10
2023-10-29T22:46:19.512Z,13.10
2023-10-29T22:48:48.488Z,13.00
2023-10-29T22:51:16.089Z,13.00
2023-10-29T22:53:43.301Z,13.00
2023-10-29T22:56:10.261Z,13.00
2023-10-29T22:58:37.245Z,12.90
2023-10-29T23:01:05.176Z,13.00
2023-10-29T23:03:32.481Z,13.10
2023-10-29T23:06:05.856Z,13.00
2023-10-29T23:08:35.187Z,12.90
2023-10-29T23:11:02.679Z,12.90
2023-10-29T23:13:30.143Z,12.90
2023-10-29T23:15:57.217Z,12.90
2023-10-29T23:18:28.865Z,13.00
2023-10-29T23:20:58.299Z,12.90
2023-10-29T23:23:30.102Z,12.80
2023-10-29T23:25:57.318Z,12.80
2023-10-29T23:28:34.731Z,12.90
2023-10-29T23:31:09.836Z,12.90
2023-10-29T23:33:38.192Z,12.80
2023-10-29T23:36:05.571Z,12.80
2023-10-29T23:38:34.936Z,12.90
2023-10-29T23:41:04.550Z,12.90
2023-10-29T23:43:31.694Z,12.80
2023-10-29T23:45:58.807Z,12.80
2023-10-29T23:48:28.156Z,12.70
2023-10-29T23:50:55.137Z,12.70
2023-10-29T23:53:22.026Z,12.70
2023-10-29T23:55:51.096Z,12.70
2023-10-29T23:58:20.654Z,12.70
